createdAt,value
2023-03-06T00:01:07.090Z,101127.56
2023-03-06T00:03:34.041Z,101127.50
2023-03-06T00:06:01.840Z,101124.84
2023-03-06T00:08:28.976Z,101122.13
2023-03-06T00:10:56.540Z,101125.44
2023-03-06T00:13:23.585Z,101122.56
2023-03-06T00:15:50.189Z,101100.88
2023-03-06T00:18:16.902Z,101108.63
2023-03-06T00:20:44.110Z,101111.88
2023-03-06T00:23:12.018Z,101101.22
2023-03-06T00:25:42.932Z,101114.84
2023-03-06T00:28:09.763Z,101098.19
2023-03-06T00:30:36.604Z,101102.31
2023-03-06T00:33:03.326Z,101103.78
2023-03-06T00:35:30.542Z,101093.22
2023-03-06T00:37:57.161Z,101081.81
2023-03-06T00:40:23.799Z,101096.09
2023-03-06T00:42:50.563Z,101094.16
2023-03-06T00:45:19.362Z,101080.19
2023-03-06T00:47:45.976Z,101079.91
2023-03-06T00:50:12.472Z,101070.13
2023-03-06T00:52:39.204Z,101076.84
2023-03-06T00:55:06.332Z,101064.38
2023-03-06T00:57:32.820Z,101073.56
2023-03-06T00:59:59.571Z,101080.28
2023-03-06T01:02:28.752Z,101080.13
2023-03-06T01:04:55.687Z,101066.88
2023-03-06T01:07:22.236Z,101059.81
2023-03-06T01:09:50.361Z,101068.34
2023-03-06T01:12:16.856Z,101063.88
2023-03-06T01:14:43.499Z,101056.94
2023-03-06T01:17:10.456Z,101058.53
2023-03-06T01:19:37.198Z,101061.75
2023-03-06T01:22:04.070Z,101053.03
2023-03-06T01:24:31.525Z,101055.63
2023-03-06T01:26:58.068Z,101048.56
2023-03-06T01:29:24.590Z,101047.47
2023-03-06T01:31:51.164Z,101043.00
2023-03-06T01:34:17.969Z,101042.13
2023-03-06T01:36:44.967Z,101028.09
2023-03-06T01:39:11.759Z,101033.94
2023-03-06T01:41:38.425Z,101022.75
2023-03-06T01:44:05.015Z,101027.72
2023-03-06T01:46:38.794Z,101030.34
2023-03-06T01:49:26.235Z,101015.66
2023-03-06T01:52:02.356Z,101013.72
2023-03-06T01:54:28.872Z,101015.41
2023-03-06T01:57:02.936Z,101018.66
2023-03-06T01:59:30.476Z,101007.41
2023-03-06T02:01:59.894Z,101003.75
2023-03-06T02:04:26.602Z,100984.69
2023-03-06T02:06:53.908Z,101002.63
2023-03-06T02:09:20.559Z,100990.44
2023-03-06T02:11:47.162Z,100986.91
2023-03-06T02:14:16.722Z,100997.13
2023-03-06T02:16:44.123Z,100996.06
2023-03-06T02:19:44.414Z,100976.91
2023-03-06T02:22:11.319Z,100992.41
2023-03-06T02:24:56.410Z,100997.44
2023-03-06T02:27:24.997Z,100993.03
2023-03-06T02:29:54.342Z,100992.94
2023-03-06T02:32:21.334Z,100981.56
2023-03-06T02:34:56.835Z,100990.34
2023-03-06T02:37:25.236Z,100971.41
2023-03-06T02:40:09.229Z,100965.38
2023-03-06T02:42:36.257Z,100948.16
2023-03-06T02:45:05.179Z,100946.22
2023-03-06T02:47:31.925Z,100952.16
2023-03-06T02:49:58.923Z,100957.13
2023-03-06T02:52:25.441Z,100952.09
2023-03-06T02:54:51.935Z,100949.28
2023-03-06T02:57:18.441Z,100939.78
2023-03-06T02:59:45.669Z,100940.44
2023-03-06T03:02:12.227Z,100942.13
2023-03-06T03:04:38.777Z,100942.81
2023-03-06T03:07:06.043Z,100943.63
2023-03-06T03:09:32.618Z,100923.75
2023-03-06T03:11:59.184Z,100931.66
2023-03-06T03:14:25.696Z,100934.34
2023-03-06T03:16:52.491Z,100920.66
2023-03-06T03:19:19.140Z,100915.56
2023-03-06T03:21:46.053Z,100920.84
2023-03-06T03:24:12.982Z,100915.72
2023-03-06T03:26:42.809Z,100913.41
2023-03-06T03:29:14.203Z,100906.66
2023-03-06T03:31:40.961Z,100911.13
2023-03-06T03:34:07.543Z,100900.69
2023-03-06T03:36:37.984Z,100907.97
2023-03-06T03:39:06.369Z,100897.81
2023-03-06T03:41:33.793Z,100879.72
2023-03-06T03:44:02.453Z,100880.94
2023-03-06T03:46:29.198Z,100881.09
2023-03-06T03:48:56.767Z,100872.00
2023-03-06T03:51:23.348Z,100878.06
2023-03-06T03:53:53.414Z,100873.09
2023-03-06T03:56:23.847Z,100859.41
2023-03-06T03:59:00.075Z,100864.00
2023-03-06T04:01:31.943Z,100867.44
2023-03-06T04:03:59.107Z,100858.03
2023-03-06T04:06:25.888Z,100857.31
2023-03-06T04:08:52.485Z,100857.41
2023-03-06T04:11:19.154Z,100861.84
2023-03-06T04:13:46.067Z,100861.13
2023-03-06T04:16:13.345Z,100854.28
2023-03-06T04:18:40.333Z,100837.19
2023-03-06T04:21:07.545Z,100848.59
2023-03-06T04:23:34.235Z,100851.25
2023-03-06T04:26:00.826Z,100837.63
2023-03-06T04:28:27.934Z,100842.25
2023-03-06T04:30:54.965Z,100829.38
2023-03-06T04:33:22.608Z,100821.91
2023-03-06T04:35:49.318Z,100825.56
2023-03-06T04:38:21.482Z,100829.16
2023-03-06T04:40:48.399Z,100819.75
2023-03-06T04:43:15.074Z,100822.44
2023-03-06T04:45:41.748Z,100822.50
2023-03-06T04:48:08.323Z,100830.38
2023-03-06T04:50:35.076Z,100812.41
2023-03-06T04:53:02.269Z,100822.91
2023-03-06T04:55:28.952Z,100821.41
2023-03-06T04:57:56.720Z,100792.91
2023-03-06T05:00:27.162Z,100811.31
2023-03-06T05:02:53.680Z,100804.47
2023-03-06T05:05:20.184Z,100803.75
2023-03-06T05:07:46.731Z,100806.47
2023-03-06T05:10:15.989Z,100803.94
2023-03-06T05:12:43.393Z,100798.16
2023-03-06T05:15:11.468Z,100794.91
2023-03-06T05:17:38.782Z,100790.75
2023-03-06T05:20:07.852Z,100780.47
2023-03-06T05:22:34.628Z,100781.34
2023-03-06T05:25:01.455Z,100766.84
2023-03-06T05:27:28.386Z,100779.06
2023-03-06T05:29:54.977Z,100773.88
2023-03-06T05:32:22.580Z,100775.75
2023-03-06T05:34:49.411Z,100770.53
2023-03-06T05:37:15.936Z,100769.72
2023-03-06T05:39:42.662Z,100770.84
2023-03-06T05:42:09.812Z,100759.63
2023-03-06T05:44:36.709Z,100754.56
2023-03-06T05:47:03.925Z,100751.13
2023-03-06T05:49:35.653Z,100751.19
2023-03-06T05:52:02.551Z,100753.06
2023-03-06T05:54:29.042Z,100747.97
2023-03-06T05:56:55.571Z,100739.41
2023-03-06T05:59:22.083Z,100746.28
2023-03-06T06:01:48.657Z,100739.47
2023-03-06T06:04:15.493Z,100748.09
2023-03-06T06:06:42.011Z,100739.47
2023-03-06T06:09:08.478Z,100733.53
2023-03-06T06:11:35.008Z,100730.16
2023-03-06T06:14:01.509Z,100734.56
2023-03-06T06:16:27.990Z,100731.13
2023-03-06T06:18:54.486Z,100720.78
2023-03-06T06:21:21.026Z,100729.56
2023-03-06T06:23:47.534Z,100724.47
2023-03-06T06:26:14.069Z,100712.56
2023-03-06T06:28:40.643Z,100721.16
2023-03-06T06:31:11.921Z,100712.81
2023-03-06T06:33:39.650Z,100706.06
2023-03-06T06:36:14.201Z,100700.06
2023-03-06T06:38:40.692Z,100692.41
2023-03-06T06:41:33.347Z,100688.22
2023-03-06T06:43:53.671Z,100677.94
2023-03-06T06:47:05.842Z,100699.50
2023-03-06T06:49:06.854Z,100685.00
2023-03-06T06:51:34.000Z,100677.31
2023-03-06T06:54:01.117Z,100677.59
2023-03-06T06:56:27.597Z,100686.25
2023-03-06T06:59:01.346Z,100671.78
2023-03-06T07:01:37.002Z,100672.84
2023-03-06T07:04:03.544Z,100681.44
2023-03-06T07:06:30.111Z,100675.56
2023-03-06T07:08:57.482Z,100667.09
2023-03-06T07:11:24.220Z,100664.63
2023-03-06T07:13:50.705Z,100660.50
2023-03-06T07:16:17.397Z,100668.34
2023-03-06T07:18:44.453Z,100662.25
2023-03-06T07:21:11.179Z,100664.16
2023-03-06T07:23:37.805Z,100669.56
2023-03-06T07:26:04.619Z,100663.63
2023-03-06T07:28:40.092Z,100662.78
2023-03-06T07:31:16.582Z,100662.09
2023-03-06T07:33:43.156Z,100649.19
2023-03-06T07:36:12.208Z,100661.44
2023-03-06T07:38:39.392Z,100650.38
2023-03-06T07:41:06.606Z,100660.81
2023-03-06T07:43:33.102Z,100645.50
2023-03-06T07:46:02.817Z,100644.75
2023-03-06T07:48:29.454Z,100634.28
2023-03-06T07:51:01.182Z,100644.59
2023-03-06T07:53:28.022Z,100653.34
2023-03-06T07:55:55.285Z,100648.28
2023-03-06T07:58:22.098Z,100641.56
2023-03-06T08:00:48.854Z,100650.28
2023-03-06T08:03:15.983Z,100628.03
2023-03-06T08:05:42.671Z,100637.63
2023-03-06T08:08:09.218Z,100643.81
2023-03-06T08:10:35.762Z,100637.88
2023-03-06T08:13:02.310Z,100636.31
2023-03-06T08:15:28.864Z,100627.13
2023-03-06T08:17:55.396Z,100625.63
2023-03-06T08:20:22.171Z,100633.41
2023-03-06T08:22:48.654Z,100624.03
2023-03-06T08:25:15.130Z,100628.50
2023-03-06T08:27:41.944Z,100627.75
2023-03-06T08:30:09.229Z,100614.16
2023-03-06T08:32:36.564Z,100616.06
2023-03-06T08:35:04.956Z,100615.28
2023-03-06T08:37:31.930Z,100610.31
2023-03-06T08:39:58.490Z,100607.94
2023-03-06T08:42:25.092Z,100612.31
2023-03-06T08:44:51.688Z,100613.34
2023-03-06T08:47:18.237Z,100602.25
2023-03-06T08:49:44.764Z,100609.28
2023-03-06T08:52:11.333Z,100613.72
2023-03-06T08:54:37.843Z,100613.03
2023-03-06T08:57:04.884Z,100612.25
2023-03-06T08:59:32.547Z,100605.44
2023-03-06T09:01:59.044Z,100604.59
2023-03-06T09:04:25.522Z,100604.75
2023-03-06T09:06:53.122Z,100603.97
2023-03-06T09:09:20.989Z,100596.25
2023-03-06T09:11:47.505Z,100596.38
2023-03-06T09:14:14.106Z,100607.56
2023-03-06T09:16:40.725Z,100586.91
2023-03-06T09:19:07.270Z,100579.25
2023-03-06T09:21:34.087Z,100582.69
2023-03-06T09:24:00.770Z,100592.31
2023-03-06T09:26:39.464Z,100598.38
2023-03-06T09:29:10.188Z,100585.44
2023-03-06T09:31:36.798Z,100593.28
2023-03-06T09:34:03.287Z,100576.16
2023-03-06T09:36:29.797Z,100588.19
2023-03-06T09:38:56.477Z,100574.41
2023-03-06T09:41:25.364Z,100579.66
2023-03-06T09:43:56.226Z,100579.63
2023-03-06T09:46:42.431Z,100559.81
2023-03-06T09:49:34.769Z,100565.03
2023-03-06T09:52:10.508Z,100566.75
2023-03-06T09:54:46.302Z,100557.28
2023-03-06T09:57:18.353Z,100558.25
2023-03-06T09:59:48.355Z,100553.19
2023-03-06T10:02:22.779Z,100547.22
2023-03-06T10:04:54.817Z,100541.19
2023-03-06T10:07:32.050Z,100551.66
2023-03-06T10:10:07.358Z,100549.22
2023-03-06T10:12:41.251Z,100546.72
2023-03-06T10:15:16.476Z,100547.69
2023-03-06T10:17:44.137Z,100540.88
2023-03-06T10:20:16.920Z,100544.44
2023-03-06T10:23:00.661Z,100537.66
2023-03-06T10:25:43.265Z,100531.75
2023-03-06T10:28:29.870Z,100532.72
2023-03-06T10:31:08.613Z,100527.72
2023-03-06T10:33:54.929Z,100520.13
2023-03-06T10:36:25.709Z,100520.19
2023-03-06T10:38:52.614Z,100521.22
2023-03-06T10:41:31.620Z,100526.47
2023-03-06T10:44:01.160Z,100526.63
2023-03-06T10:46:31.681Z,100530.19
2023-03-06T10:49:07.491Z,100523.44
2023-03-06T10:51:34.072Z,100519.25
2023-03-06T10:54:03.268Z,100511.59
2023-03-06T10:56:34.304Z,100515.16
2023-03-06T10:59:17.727Z,100516.97
2023-03-06T11:01:45.492Z,100526.50
2023-03-06T11:04:37.234Z,100504.19
2023-03-06T11:07:19.064Z,100511.19
2023-03-06T11:09:58.018Z,100512.94
2023-03-06T11:12:31.810Z,100515.53
2023-03-06T11:15:20.760Z,100497.47
2023-03-06T11:18:09.154Z,100509.53
2023-03-06T11:20:51.538Z,100500.06
2023-03-06T11:23:33.188Z,100506.09
2023-03-06T11:26:02.997Z,100489.75
2023-03-06T11:28:42.267Z,100482.06
2023-03-06T11:31:25.625Z,100479.47
2023-03-06T11:33:59.130Z,100475.16
2023-03-06T11:36:30.201Z,100476.88
2023-03-06T11:38:56.755Z,100482.03
2023-03-06T11:41:42.529Z,100455.31
2023-03-06T11:44:36.905Z,100468.19
2023-03-06T11:47:14.545Z,100461.31
2023-03-06T11:49:51.350Z,100454.38
2023-03-06T11:52:32.257Z,100444.91
2023-03-06T11:54:58.837Z,100445.75
2023-03-06T11:57:33.070Z,100433.69
2023-03-06T12:00:22.142Z,100443.16
2023-03-06T12:03:12.523Z,100432.75
2023-03-06T12:05:47.181Z,100428.47
2023-03-06T12:08:21.255Z,100418.97
2023-03-06T12:11:20.630Z,100427.56
2023-03-06T12:14:14.396Z,100424.16
2023-03-06T12:17:07.051Z,100424.16
2023-03-06T12:19:39.696Z,100411.25
2023-03-06T12:22:21.532Z,100408.66
2023-03-06T12:25:21.647Z,100419.00
2023-03-06T12:28:28.011Z,100409.50
2023-03-06T12:31:06.956Z,100409.50
2023-03-06T12:33:54.907Z,100409.50
2023-03-06T12:36:28.682Z,100399.19
2023-03-06T12:39:29.343Z,100398.28
2023-03-06T12:42:30.013Z,100407.72
2023-03-06T12:45:11.818Z,100396.50
2023-03-06T12:47:44.522Z,100394.81
2023-03-06T12:50:22.132Z,100394.81
2023-03-06T12:52:49.228Z,100391.41
2023-03-06T12:55:21.177Z,100398.31
2023-03-06T12:57:49.404Z,100370.75
2023-03-06T13:01:07.827Z,100380.22
2023-03-06T13:03:36.297Z,100369.00
2023-03-06T13:06:30.920Z,100372.44
2023-03-06T13:09:11.191Z,100364.66
2023-03-06T13:11:55.903Z,100350.81
2023-03-06T13:15:14.419Z,100355.91
2023-03-06T13:17:41.041Z,100355.00
2023-03-06T13:20:13.837Z,100352.38
2023-03-06T13:22:44.979Z,100335.13
2023-03-06T13:25:20.830Z,100346.31
2023-03-06T13:27:53.562Z,100335.94
2023-03-06T13:30:35.138Z,100334.25
2023-03-06T13:33:22.041Z,100335.97
2023-03-06T13:35:54.007Z,100325.63
2023-03-06T13:38:32.011Z,100316.19
2023-03-06T13:41:20.470Z,100320.50
2023-03-06T13:43:48.034Z,100319.66
2023-03-06T13:46:36.847Z,100311.94
2023-03-06T13:49:09.593Z,100309.34
2023-03-06T13:51:48.279Z,100302.44
2023-03-06T13:54:36.209Z,100314.56
2023-03-06T13:57:21.055Z,100306.81
2023-03-06T14:00:03.147Z,100305.97
2023-03-06T14:03:22.406Z,100302.56
2023-03-06T14:05:51.217Z,100297.38
2023-03-06T14:08:21.340Z,100289.63
2023-03-06T14:10:59.151Z,100288.81
2023-03-06T14:13:35.070Z,100285.38
2023-03-06T14:16:17.319Z,100294.88
2023-03-06T14:18:49.455Z,100275.97
2023-03-06T14:21:26.170Z,100283.72
2023-03-06T14:24:00.971Z,100291.47
2023-03-06T14:26:31.194Z,100276.81
2023-03-06T14:29:02.699Z,100273.38
2023-03-06T14:31:33.251Z,100271.66
2023-03-06T14:34:02.425Z,100254.41
2023-03-06T14:36:50.399Z,100263.84
2023-03-06T14:39:34.037Z,100257.81
2023-03-06T14:42:07.794Z,100266.41
2023-03-06T14:44:34.398Z,100260.38
2023-03-06T14:47:31.521Z,100252.63
2023-03-06T14:50:27.724Z,100263.81
2023-03-06T14:52:57.582Z,100244.88
2023-03-06T14:55:26.829Z,100260.41
2023-03-06T14:58:10.307Z,100251.81
2023-03-06T15:00:41.487Z,100256.16
2023-03-06T15:03:19.162Z,100246.75
2023-03-06T15:05:47.346Z,100247.63
2023-03-06T15:08:25.495Z,100240.81
2023-03-06T15:10:59.129Z,100234.75
2023-03-06T15:13:28.674Z,100226.19
2023-03-06T15:16:03.123Z,100223.63
2023-03-06T15:18:54.846Z,100224.47
2023-03-06T15:21:23.809Z,100221.91
2023-03-06T15:23:52.776Z,100229.66
2023-03-06T15:26:33.685Z,100220.19
2023-03-06T15:29:10.192Z,100219.31
2023-03-06T15:31:45.363Z,100220.19
2023-03-06T15:34:11.867Z,100215.88
2023-03-06T15:36:49.110Z,100209.88
2023-03-06T15:39:34.069Z,100211.59
2023-03-06T15:42:04.934Z,100209.00
2023-03-06T15:44:32.546Z,100195.22
2023-03-06T15:47:08.455Z,100200.34
2023-03-06T15:49:37.379Z,100189.19
2023-03-06T15:52:04.399Z,100195.19
2023-03-06T15:54:32.826Z,100193.50
2023-03-06T15:56:59.854Z,100186.59
2023-03-06T15:59:28.441Z,100188.34
2023-03-06T16:01:55.023Z,100189.25
2023-03-06T16:04:24.254Z,100195.25
2023-03-06T16:06:50.811Z,100191.00
2023-03-06T16:09:17.541Z,100191.88
2023-03-06T16:11:44.823Z,100172.94
2023-03-06T16:14:25.922Z,100191.00
2023-03-06T16:16:53.924Z,100202.22
2023-03-06T16:19:27.436Z,100188.44
2023-03-06T16:21:55.738Z,100185.03
2023-03-06T16:24:23.560Z,100178.16
2023-03-06T16:26:52.324Z,100178.19
2023-03-06T16:29:21.640Z,100175.63
2023-03-06T16:31:48.863Z,100168.75
2023-03-06T16:34:15.824Z,100170.47
2023-03-06T16:36:42.768Z,100171.31
2023-03-06T16:39:14.494Z,100174.78
2023-03-06T16:41:41.255Z,100169.63
2023-03-06T16:44:08.300Z,100178.22
2023-03-06T16:46:38.587Z,100174.75
2023-03-06T16:49:05.211Z,100173.06
2023-03-06T16:51:31.745Z,100174.78
2023-03-06T16:53:58.231Z,100175.66
2023-03-06T16:56:25.295Z,100209.19
2023-03-06T16:58:51.844Z,100212.66
2023-03-06T17:01:19.710Z,100216.03
2023-03-06T17:03:46.344Z,100203.94
2023-03-06T17:06:21.510Z,100196.09
2023-03-06T17:08:49.377Z,100204.66
2023-03-06T17:11:16.637Z,100205.44
2023-03-06T17:13:44.281Z,100195.97
2023-03-06T17:16:14.552Z,100187.31
2023-03-06T17:18:41.880Z,100195.88
2023-03-06T17:21:08.829Z,100205.31
2023-03-06T17:23:35.360Z,100207.00
2023-03-06T17:26:13.992Z,100216.38
2023-03-06T17:28:41.352Z,100206.00
2023-03-06T17:31:16.711Z,100213.72
2023-03-06T17:33:44.431Z,100211.13
2023-03-06T17:36:12.022Z,100197.38
2023-03-06T17:38:38.612Z,100193.09
2023-03-06T17:41:07.316Z,100187.06
2023-03-06T17:43:34.107Z,100181.91
2023-03-06T17:46:05.710Z,100188.78
2023-03-06T17:48:32.324Z,100190.50
2023-03-06T17:50:59.084Z,100195.66
2023-03-06T17:53:26.170Z,100194.78
2023-03-06T17:55:52.815Z,100194.78
2023-03-06T17:58:19.604Z,100191.34
2023-03-06T18:00:46.404Z,100168.13
2023-03-06T18:03:12.968Z,100187.91
2023-03-06T18:05:39.568Z,100178.47
2023-03-06T18:08:06.677Z,100193.97
2023-03-06T18:10:33.267Z,100196.53
2023-03-06T18:12:59.838Z,100189.66
2023-03-06T18:15:26.596Z,100191.41
2023-03-06T18:17:53.103Z,100201.75
2023-03-06T18:20:19.751Z,100197.47
2023-03-06T18:22:46.253Z,100198.28
2023-03-06T18:25:12.694Z,100205.19
2023-03-06T18:27:39.192Z,100192.25
2023-03-06T18:30:06.196Z,100199.97
2023-03-06T18:32:32.737Z,100201.72
2023-03-06T18:34:59.237Z,100202.59
2023-03-06T18:37:25.756Z,100199.13
2023-03-06T18:39:52.298Z,100203.41
2023-03-06T18:42:18.834Z,100195.69
2023-03-06T18:44:45.317Z,100203.41
2023-03-06T18:47:11.825Z,100207.72
2023-03-06T18:49:39.944Z,100197.41
2023-03-06T18:52:07.231Z,100193.97
2023-03-06T18:54:34.096Z,100205.16
2023-03-06T18:57:00.696Z,100202.59
2023-03-06T18:59:27.169Z,100182.78
2023-03-06T19:01:53.645Z,100188.81
2023-03-06T19:04:20.239Z,100187.97
2023-03-06T19:06:46.838Z,100188.78
2023-03-06T19:09:13.370Z,100181.03
2023-03-06T19:11:39.950Z,100182.81
2023-03-06T19:14:06.804Z,100175.94
2023-03-06T19:16:33.634Z,100182.78
2023-03-06T19:19:00.283Z,100187.94
2023-03-06T19:21:28.284Z,100187.91
2023-03-06T19:23:55.604Z,100186.22
2023-03-06T19:26:22.497Z,100183.63
2023-03-06T19:28:49.688Z,100174.16
2023-03-06T19:31:25.364Z,100184.44
2023-03-06T19:33:53.448Z,100178.41
2023-03-06T19:36:21.399Z,100185.28
2023-03-06T19:38:47.959Z,100156.88
2023-03-06T19:41:14.568Z,100172.41
2023-03-06T19:43:42.397Z,100168.97
2023-03-06T19:46:13.352Z,100170.69
2023-03-06T19:48:41.400Z,100179.25
2023-03-06T19:51:08.586Z,100169.81
2023-03-06T19:53:35.482Z,100160.34
2023-03-06T19:56:04.153Z,100181.81
2023-03-06T19:58:30.677Z,100168.03
2023-03-06T20:01:10.367Z,100172.34
2023-03-06T20:03:37.338Z,100162.88
2023-03-06T20:06:04.311Z,100169.75
2023-03-06T20:08:30.799Z,100165.47
2023-03-06T20:10:57.417Z,100138.78
2023-03-06T20:13:23.956Z,100155.13
2023-03-06T20:15:50.502Z,100153.41
2023-03-06T20:18:17.005Z,100160.22
2023-03-06T20:20:43.521Z,100160.22
2023-03-06T20:23:10.727Z,100153.34
2023-03-06T20:25:37.670Z,100167.94
2023-03-06T20:28:05.143Z,100149.88
2023-03-06T20:30:38.147Z,100161.91
2023-03-06T20:33:05.361Z,100159.28
2023-03-06T20:35:32.130Z,100150.69
2023-03-06T20:37:58.683Z,100146.38
2023-03-06T20:40:25.293Z,100146.38
2023-03-06T20:42:51.871Z,100149.78
2023-03-06T20:45:18.376Z,100133.47
2023-03-06T20:47:44.866Z,100136.91
2023-03-06T20:50:11.666Z,100142.91
2023-03-06T20:52:38.172Z,100153.22
2023-03-06T20:55:05.344Z,100141.19
2023-03-06T20:57:31.844Z,100150.66
2023-03-06T20:59:58.635Z,100156.63
2023-03-06T21:02:25.121Z,100154.91
2023-03-06T21:04:51.653Z,100152.31
2023-03-06T21:07:18.432Z,100139.41
2023-03-06T21:09:44.921Z,100148.84
2023-03-06T21:12:11.427Z,100132.53
2023-03-06T21:14:37.902Z,100138.53
2023-03-06T21:17:04.433Z,100128.16
2023-03-06T21:19:30.923Z,100129.00
2023-03-06T21:21:57.404Z,100130.72
2023-03-06T21:24:23.949Z,100123.84
2023-03-06T21:26:50.561Z,100127.28
2023-03-06T21:29:17.143Z,100134.13
2023-03-06T21:31:43.677Z,100124.66
2023-03-06T21:34:10.273Z,100132.38
2023-03-06T21:36:37.017Z,100141.78
2023-03-06T21:39:04.415Z,100131.53
2023-03-06T21:41:31.016Z,100124.59
2023-03-06T21:44:02.929Z,100127.13
2023-03-06T21:46:30.055Z,100133.97
2023-03-06T21:48:57.389Z,100128.81
2023-03-06T21:51:25.659Z,100130.50
2023-03-06T21:53:53.076Z,100128.75
2023-03-06T21:56:21.700Z,100120.19
2023-03-06T21:58:48.259Z,100115.88
2023-03-06T22:01:24.054Z,100111.59
2023-03-06T22:03:51.118Z,100123.63
2023-03-06T22:06:19.903Z,100126.22
2023-03-06T22:08:46.882Z,100124.50
2023-03-06T22:11:16.516Z,100121.03
2023-03-06T22:13:43.645Z,100134.78
2023-03-06T22:16:11.183Z,100123.63
2023-03-06T22:18:38.000Z,100121.91
2023-03-06T22:21:09.794Z,100127.00
2023-03-06T22:23:36.641Z,100126.13
2023-03-06T22:26:05.345Z,100128.69
2023-03-06T22:28:32.074Z,100120.06
2023-03-06T22:31:09.861Z,100116.66
2023-03-06T22:33:37.403Z,100108.06
2023-03-06T22:36:10.457Z,100101.16
2023-03-06T22:38:39.679Z,100116.59
2023-03-06T22:41:07.158Z,100107.16
2023-03-06T22:43:34.582Z,100101.16
2023-03-06T22:46:03.128Z,100101.16
2023-03-06T22:48:29.900Z,100097.75
2023-03-06T22:51:01.781Z,100100.28
2023-03-06T22:53:28.291Z,100090.84
2023-03-06T22:55:58.264Z,100090.88
2023-03-06T22:58:25.466Z,100096.00
2023-03-06T23:00:52.020Z,100084.81
2023-03-06T23:03:18.577Z,100094.22
2023-03-06T23:05:45.150Z,100079.63
2023-03-06T23:08:11.658Z,100086.53
2023-03-06T23:10:38.958Z,100087.34
2023-03-06T23:13:23.878Z,100094.19
2023-03-06T23:16:09.837Z,100095.88
2023-03-06T23:18:54.844Z,100086.47
2023-03-06T23:21:41.260Z,100082.97
2023-03-06T23:24:26.860Z,100082.13
2023-03-06T23:26:53.444Z,100063.19
2023-03-06T23:29:19.954Z,100076.97
2023-03-06T23:31:46.468Z,100071.75
2023-03-06T23:34:12.994Z,100076.94
2023-03-06T23:36:39.568Z,100073.53
2023-03-06T23:39:06.087Z,100064.94
2023-03-06T23:41:32.649Z,100073.53
2023-03-06T23:43:59.409Z,100070.06
2023-03-06T23:46:26.133Z,100070.06
2023-03-06T23:48:52.964Z,100071.84
2023-03-06T23:51:22.200Z,100067.53
2023-03-06T23:53:55.597Z,100069.25
2023-03-06T23:56:22.702Z,100052.06
2023-03-06T23:58:49.251Z,100059.81
